SCCI/PUQ METAR and TAF weather

Enter ICAO airport designator
Station Type Date Time Source
SCCI METAR 2022/12/04 12:00 UTC NOAA

SCCI 041200Z 31024G34KT 9999 FEW040 10/02 Q0989 NOSIG


Station Type Date Time Source
SCCI Decoded METAR 2022/12/04 12:00 UTC NOAA

Punta Arenas, Chile (SCCI) 53-00S 070-51W 33M
Dec 04, 2022 - 07:00 AM EST / 2022.12.04 1200 UTC
Wind: from the NW (310 degrees) at 28 MPH (24 KT) gusting to 39 MPH (34 KT):0
Visibility: greater than 7 mile(s):0
Sky conditions: mostly clear
Temperature: 50 F (10 C)
Dew Point: 35 F (2 C)
Relative Humidity: 57%
Pressure (altimeter): 29.21 in. Hg (0989 hPa)
ob: SCCI 041200Z 31024G34KT 9999 FEW040 10/02 Q0989 NOSIG
cycle: 12

Station Type Date Time Source
SCCI TAF 2022/12/04 12:17 UTC NOAA

TAF SCCI 041013Z 0412/0512 31025G35KT 9000 SCT030 BKN040 TN04/0512Z TX13/0418Z
TEMPO 0412/0418 31033G43KT
TEMPO 0418/0500 7000 SHRA SCT015 BKN025
BECMG 0423/0501 29018KT
BECMG 0504/0506 27008KT 8000 FEW020 BKN030
TEMPO 0509/0512 6000 SHRA SCT016 BKN025

Example: see airport list